Stations météo

réclame
Mon MeteoGroup
Aix en Provence, France (7654): Température de l'air & dewpoint: 17.10.2018 07:00:00 - 23.10.2018 07:00:00 (CEST)Aix en Provence, France (7654): Vitesse du vent & gusts: 17.10.2018 07:00:00 - 23.10.2018 07:00:00 (CEST)Aix en Provence, France (7654): Direction du vent: 17.10.2018 07:00:00 - 23.10.2018 07:00:00 (CEST)Aix en Provence, France (7654): Quantités de précipitations: 17.10.2018 07:00:00 - 23.10.2018 07:00:00 (CEST)
Date & Time tt [°C] td [°C] ff [km/h] ff [knt] fx [km/h] fx [knt] dd rr [mm]
23.10.2018 07:00:00 7,9 7,0 2 1 8 4 ENE 0,0
23.10.2018 06:00:00 8,4 7,2 0 0 5 3 N 0,0
23.10.2018 05:00:00 9,1 7,4 4 2 13 7 NE 0,2
23.10.2018 04:00:00 10,9 7,6 8 4 18 10 SE 0,0
23.10.2018 03:00:00 9,4 8,3 0 0 5 3 N 0,0
23.10.2018 02:00:00 9,7 8,3 0 0 5 3 N -
23.10.2018 01:00:00 10,2 8,3 0 0 8 4 N 0,0
23.10.2018 00:00:00 11,2 8,9 0 0 15 8 N 0,0
22.10.2018 23:00:00 10,6 8,9 0 0 8 4 N 0,0
22.10.2018 22:00:00 11,1 9,2 0 0 5 3 N 0,0
22.10.2018 21:00:00 12,1 9,3 0 0 4 2 N 0,0
22.10.2018 20:00:00 13,6 9,4 0 0 8 4 N -
22.10.2018 19:00:00 15,7 8,7 4 2 16 9 NNW 0,0
22.10.2018 18:00:00 18,8 9,0 8 4 16 9 NW 0,0
22.10.2018 17:00:00 19,8 9,4 8 4 13 7 WNW 0,0
22.10.2018 16:00:00 19,5 8,8 5 3 16 9 W 0,0
22.10.2018 15:00:00 19,0 9,2 5 3 18 10 WNW 0,0
22.10.2018 14:00:00 18,5 9,3 4 2 15 8 SW -
22.10.2018 13:00:00 17,2 8,6 8 4 18 10 WSW 0,0
22.10.2018 12:00:00 18,2 9,0 9 5 21 11 WSW 0,0
22.10.2018 11:00:00 17,2 11,9 5 3 15 8 SE 0,0
22.10.2018 10:00:00 15,3 10,9 2 1 5 3 NNW 0,0
22.10.2018 09:00:00 15,0 11,4 0 0 13 7 N 0,0
22.10.2018 08:00:00 16,1 12,5 4 2 8 4 W -
22.10.2018 07:00:00 16,8 11,9 2 1 18 10 ESE 0,0
22.10.2018 06:00:00 17,0 12,1 8 4 16 9 E 0,0
22.10.2018 05:00:00 17,2 12,1 5 3 28 15 E 0,0
22.10.2018 04:00:00 17,8 12,5 13 7 29 16 ESE 0,0
22.10.2018 03:00:00 18,4 13,5 11 6 29 16 E 0,0
22.10.2018 02:00:00 18,4 13,7 8 4 34 18 E -
22.10.2018 01:00:00 18,3 14,4 13 7 39 21 E 0,0
22.10.2018 00:00:00 14,7 12,4 5 3 15 8 E 0,0
21.10.2018 23:00:00 12,9 11,0 0 0 9 5 N 0,0
21.10.2018 22:00:00 13,8 11,3 4 2 8 4 E 0,0
21.10.2018 21:00:00 13,9 11,2 0 0 5 3 N 0,0
21.10.2018 20:00:00 15,1 11,9 0 0 5 3 N -
21.10.2018 19:00:00 17,7 10,8 4 2 15 8 W 0,0
21.10.2018 18:00:00 20,6 11,2 8 4 21 11 WNW 0,0
21.10.2018 17:00:00 21,7 10,8 8 4 21 11 WNW 0,0
21.10.2018 16:00:00 21,9 12,2 11 6 22 12 WNW 0,0
21.10.2018 15:00:00 21,9 12,2 9 5 22 12 W 0,0
21.10.2018 14:00:00 22,2 14,1 9 5 18 10 W -
21.10.2018 13:00:00 22,3 15,2 8 4 15 8 WNW 0,0
21.10.2018 12:00:00 22,0 14,4 4 2 8 4 SW 0,0
21.10.2018 11:00:00 20,2 13,2 4 2 8 4 S 0,0
21.10.2018 10:00:00 17,3 13,0 2 1 5 3 N 0,0
21.10.2018 09:00:00 13,5 13,2 0 0 4 2 N 0,0
21.10.2018 08:00:00 10,8 10,5 0 0 4 2 N -
21.10.2018 07:00:00 10,9 10,4 0 0 4 2 N 0,0
21.10.2018 06:00:00 11,3 10,8 0 0 4 2 N 0,0
21.10.2018 05:00:00 11,7 11,2 0 0 9 5 N 0,2
21.10.2018 04:00:00 11,6 11,1 2 1 8 4 ESE 0,0
21.10.2018 03:00:00 11,9 11,4 0 0 4 2 N 0,0
21.10.2018 02:00:00 12,3 11,8 2 1 4 2 N -
21.10.2018 01:00:00 12,7 12,1 0 0 2 1 N 0,0
21.10.2018 00:00:00 13,4 12,8 0 0 4 2 N 0,0
20.10.2018 23:00:00 13,7 12,9 0 0 4 2 N 0,0
20.10.2018 22:00:00 14,5 13,5 2 1 4 2 ENE 0,0
20.10.2018 21:00:00 15,3 14,2 0 0 4 2 N 0,0
20.10.2018 20:00:00 16,5 14,9 0 0 4 2 N -
20.10.2018 19:00:00 18,3 15,9 0 0 4 2 N 0,0
20.10.2018 18:00:00 20,9 15,4 4 2 11 6 W 0,0
20.10.2018 17:00:00 22,3 14,9 4 2 13 7 W 0,0
20.10.2018 16:00:00 22,3 15,2 8 4 13 7 SW 0,0
20.10.2018 15:00:00 23,0 15,1 5 3 15 8 WNW 0,0
20.10.2018 14:00:00 22,8 14,6 4 2 9 5 WNW -
20.10.2018 13:00:00 22,8 12,7 4 2 15 8 NNW 0,0
20.10.2018 12:00:00 23,8 14,2 4 2 8 4 WNW 0,0
20.10.2018 11:00:00 21,3 13,7 4 2 9 5 SE 0,0
20.10.2018 10:00:00 18,4 13,9 4 2 9 5 E 0,0
20.10.2018 09:00:00 14,0 13,4 0 0 4 2 N 0,2
20.10.2018 08:00:00 12,7 11,9 2 1 9 5 SW -
20.10.2018 07:00:00 12,9 12,3 4 2 4 2 ENE 0,0
20.10.2018 06:00:00 12,6 12,0 4 2 8 4 E 0,0
20.10.2018 05:00:00 12,7 11,9 0 0 4 2 N 0,0
20.10.2018 04:00:00 13,3 12,5 4 2 8 4 N 0,0
20.10.2018 03:00:00 13,3 12,7 0 0 4 2 N 0,0
20.10.2018 02:00:00 13,8 13,0 4 2 5 3 N -
20.10.2018 01:00:00 14,0 13,2 0 0 2 1 N 0,0
20.10.2018 00:00:00 14,5 13,4 0 0 4 2 N 0,0
19.10.2018 23:00:00 15,2 13,9 0 0 4 2 N 0,0
19.10.2018 22:00:00 15,6 14,0 0 0 4 2 N 0,0
19.10.2018 21:00:00 16,7 14,3 0 0 4 2 N 0,0
19.10.2018 20:00:00 17,7 14,4 0 0 5 3 N -
19.10.2018 19:00:00 20,1 14,2 0 0 11 6 N 0,0
19.10.2018 18:00:00 23,0 13,2 8 4 21 11 WNW 0,0
19.10.2018 17:00:00 24,5 13,7 11 6 21 11 WNW 0,0
19.10.2018 16:00:00 25,5 13,0 8 4 18 10 W 0,0
19.10.2018 15:00:00 25,7 12,5 4 2 13 7 W 0,0
19.10.2018 14:00:00 24,7 13,9 4 2 13 7 N -
19.10.2018 13:00:00 23,4 13,8 2 1 8 4 NNW 0,0
19.10.2018 12:00:00 23,3 13,7 0 0 5 3 N 0,0
19.10.2018 11:00:00 21,3 14,2 0 0 8 4 N 0,0
19.10.2018 10:00:00 19,6 13,3 2 1 11 6 E 0,0
19.10.2018 09:00:00 17,1 13,2 4 2 11 6 ESE 0,0
19.10.2018 08:00:00 14,9 13,1 2 1 8 4 N -
19.10.2018 07:00:00 15,5 13,3 4 2 11 6 SE 0,2
19.10.2018 06:00:00 14,5 13,0 0 0 8 4 N 0,0
19.10.2018 05:00:00 15,0 13,4 4 2 8 4 ENE 0,0
19.10.2018 04:00:00 14,7 13,9 4 2 9 5 ESE 0,0
19.10.2018 03:00:00 14,5 13,9 0 0 4 2 N 0,0
19.10.2018 02:00:00 14,7 13,9 0 0 4 2 N -
19.10.2018 01:00:00 15,1 14,1 0 0 4 2 N 0,0
19.10.2018 00:00:00 15,9 14,8 2 1 4 2 N 0,0
18.10.2018 23:00:00 16,7 15,6 0 0 4 2 N 0,0
18.10.2018 22:00:00 17,8 16,1 0 0 4 2 N 0,0
18.10.2018 21:00:00 18,6 16,2 0 0 4 2 N 0,0
18.10.2018 20:00:00 19,5 16,7 0 0 5 3 N -
18.10.2018 19:00:00 20,7 16,7 0 0 8 4 N 0,0
18.10.2018 18:00:00 22,7 15,8 4 2 9 5 NE 0,0
18.10.2018 17:00:00 24,0 14,1 8 4 22 12 E 0,0
18.10.2018 16:00:00 24,3 14,4 9 5 24 13 SE 0,0
18.10.2018 15:00:00 24,6 14,1 9 5 22 12 SE 0,0
18.10.2018 14:00:00 24,2 14,6 4 2 13 7 ESE -
18.10.2018 13:00:00 23,1 15,4 4 2 18 10 NNW 0,0
18.10.2018 12:00:00 22,0 14,9 9 5 21 11 NE 0,0
18.10.2018 11:00:00 18,9 15,0 4 2 21 11 ENE 0,0
18.10.2018 10:00:00 17,8 14,9 9 5 22 12 NNE 0,0
18.10.2018 09:00:00 17,3 14,6 9 5 22 12 NNE 0,0
18.10.2018 08:00:00 16,8 15,0 4 2 11 6 SSE -
18.10.2018 07:00:00 16,3 15,2 2 1 8 4 N 0,0
18.10.2018 06:00:00 16,8 15,0 4 2 15 8 ENE 0,0
18.10.2018 05:00:00 16,3 14,8 5 3 11 6 NE 0,0
18.10.2018 04:00:00 17,5 14,8 4 2 22 12 NE 0,0
18.10.2018 03:00:00 16,8 15,3 5 3 18 10 NE 0,0
18.10.2018 02:00:00 16,9 15,4 5 3 26 14 NNE -
18.10.2018 01:00:00 17,3 15,8 11 6 24 13 ESE 2,0
18.10.2018 00:00:00 17,9 15,3 5 3 13 7 NE 0,4
17.10.2018 23:00:00 17,6 15,6 5 3 11 6 ENE 0,0
17.10.2018 22:00:00 17,4 16,6 0 0 4 2 N 0,0
17.10.2018 21:00:00 17,7 16,6 0 0 5 3 N 0,0
17.10.2018 20:00:00 17,9 16,2 2 1 13 7 NNE -
17.10.2018 19:00:00 18,3 16,1 8 4 21 11 NNE 1,0
17.10.2018 18:00:00 20,6 16,4 4 2 9 5 N 0,0
17.10.2018 17:00:00 20,2 17,0 0 0 11 6 N 1,0
17.10.2018 16:00:00 21,4 15,0 5 3 16 9 NNE 0,2
17.10.2018 15:00:00 23,1 15,4 8 4 15 8 NNW 0,0
17.10.2018 14:00:00 21,8 14,2 4 2 9 5 NNE -
17.10.2018 13:00:00 21,9 14,0 5 3 11 6 SSE 0,0
17.10.2018 12:00:00 20,4 14,5 4 2 16 9 N 0,0
17.10.2018 11:00:00 19,2 14,7 5 3 18 10 NE 0,0
17.10.2018 10:00:00 17,2 15,2 0 0 9 5 N 0,0
17.10.2018 09:00:00 15,3 14,5 4 2 9 5 ENE 0,0
17.10.2018 08:00:00 15,1 14,5 0 0 4 2 N -
17.10.2018 07:00:00 15,2 14,4 0 0 8 4 N 0,2

tt = Température de l'air
td = dewpoint
ff = Vitesse du vent
fx = gusts
dd = Direction du vent
rr = Quantités de précipitations

stations d'obs. à proximité